createdAt,value
2019-05-16T00:00:58.602Z,61.15
2019-05-16T00:01:55.834Z,61.15
2019-05-16T00:02:55.829Z,60.53
2019-05-16T00:03:57.868Z,61.66
2019-05-16T00:04:55.830Z,61.45
2019-05-16T00:05:58.257Z,61.25
2019-05-16T00:06:55.778Z,61.25
2019-05-16T00:07:58.688Z,61.18
2019-05-16T00:08:55.753Z,60.97
2019-05-16T00:09:55.775Z,61.58
2019-05-16T00:10:57.957Z,61.38
2019-05-16T00:11:58.008Z,60.76
2019-05-16T00:12:55.712Z,59.53
2019-05-16T00:13:57.756Z,61.69
2019-05-16T00:14:58.072Z,61.38
2019-05-16T00:15:55.677Z,59.94
2019-05-16T00:16:55.670Z,59.12
2019-05-16T00:17:58.046Z,59.74
2019-05-16T00:18:55.648Z,58.51
2019-05-16T00:19:55.670Z,57.69
2019-05-16T00:20:55.622Z,56.35
2019-05-16T00:21:55.609Z,58.40
2019-05-16T00:22:55.607Z,58.00
2019-05-16T00:23:55.601Z,56.26
2019-05-16T00:24:57.666Z,55.51
2019-05-16T00:25:55.572Z,57.28
2019-05-16T00:26:57.924Z,56.67
2019-05-16T00:27:55.545Z,56.35
2019-05-16T00:28:55.538Z,55.94
2019-05-16T00:29:57.977Z,56.46
2019-05-16T00:30:55.530Z,56.64
2019-05-16T00:31:55.502Z,55.64
2019-05-16T00:32:55.496Z,55.62
2019-05-16T00:33:57.783Z,54.18
2019-05-16T00:34:55.503Z,55.62
2019-05-16T00:36:02.553Z,56.05
2019-05-16T00:36:58.204Z,55.85
2019-05-16T00:37:55.438Z,56.67
2019-05-16T00:38:57.715Z,54.92
2019-05-16T00:39:55.443Z,54.82
2019-05-16T00:40:55.407Z,55.74
2019-05-16T00:41:55.403Z,55.74
2019-05-16T00:42:55.422Z,55.85
2019-05-16T00:43:57.624Z,55.02
2019-05-16T00:44:55.391Z,55.43
2019-05-16T00:45:55.363Z,55.43
2019-05-16T00:46:55.350Z,55.46
2019-05-16T00:47:55.334Z,55.74
2019-05-16T00:48:55.318Z,55.74
2019-05-16T00:49:55.340Z,56.18
2019-05-16T00:50:55.298Z,55.87
2019-05-16T00:51:55.291Z,55.74
2019-05-16T00:52:55.282Z,54.72
2019-05-16T00:53:55.275Z,55.43
2019-05-16T00:54:55.282Z,55.02
2019-05-16T00:55:55.248Z,54.21
2019-05-16T00:56:57.699Z,54.82
2019-05-16T00:57:55.229Z,54.31
2019-05-16T00:58:55.213Z,53.90
2019-05-16T00:59:55.249Z,53.59
2019-05-16T01:00:55.197Z,54.82
2019-05-16T01:01:55.179Z,53.49
2019-05-16T01:02:55.174Z,53.51
2019-05-16T01:03:55.163Z,54.13
2019-05-16T01:04:55.179Z,53.80
2019-05-16T01:05:55.149Z,53.92
2019-05-16T01:06:55.126Z,52.67
2019-05-16T01:07:55.118Z,53.90
2019-05-16T01:08:55.109Z,53.31
2019-05-16T01:09:55.103Z,53.00
2019-05-16T01:10:55.115Z,52.87
2019-05-16T01:11:55.080Z,53.31
2019-05-16T01:12:55.067Z,52.90
2019-05-16T01:13:55.057Z,52.69
2019-05-16T01:14:55.042Z,52.49
2019-05-16T01:15:55.059Z,53.41
2019-05-16T01:16:55.025Z,53.00
2019-05-16T01:17:55.017Z,52.61
2019-05-16T01:18:55.003Z,51.77
2019-05-16T01:19:54.997Z,51.67
2019-05-16T01:20:55.005Z,53.33
2019-05-16T01:21:54.966Z,52.92
2019-05-16T01:22:54.958Z,53.23
2019-05-16T01:23:54.948Z,53.00
2019-05-16T01:24:54.939Z,53.74
2019-05-16T01:25:54.954Z,53.03
2019-05-16T01:26:54.914Z,52.72
2019-05-16T01:27:54.906Z,53.23
2019-05-16T01:28:54.896Z,53.85
2019-05-16T01:29:54.885Z,53.15
2019-05-16T01:30:54.902Z,52.61
2019-05-16T01:31:54.867Z,52.61
2019-05-16T01:32:54.850Z,53.03
2019-05-16T01:33:54.839Z,53.12
2019-05-16T01:34:54.845Z,53.05
2019-05-16T01:35:54.841Z,52.95
2019-05-16T01:36:54.813Z,52.54
2019-05-16T01:37:54.802Z,52.95
2019-05-16T01:38:54.786Z,50.99
2019-05-16T01:39:54.778Z,51.41
2019-05-16T01:40:54.790Z,51.92
2019-05-16T01:41:54.754Z,51.61
2019-05-16T01:42:54.748Z,51.82
2019-05-16T01:43:54.732Z,52.12
2019-05-16T01:44:54.731Z,52.33
2019-05-16T01:45:54.734Z,51.41
2019-05-16T01:46:54.706Z,51.10
2019-05-16T01:47:54.690Z,51.10
2019-05-16T01:48:54.687Z,51.72
2019-05-16T01:49:54.666Z,52.15
2019-05-16T01:50:54.702Z,51.92
2019-05-16T01:51:54.659Z,52.04
2019-05-16T01:52:54.635Z,52.36
2019-05-16T01:53:54.626Z,52.56
2019-05-16T01:54:54.620Z,53.79
2019-05-16T01:55:54.910Z,51.74
2019-05-16T01:56:54.595Z,51.64
2019-05-16T01:57:54.582Z,51.53
2019-05-16T01:58:54.570Z,52.46
2019-05-16T01:59:54.569Z,52.25
2019-05-16T02:01:11.190Z,52.36
2019-05-16T02:02:00.173Z,51.76
2019-05-16T02:02:57.824Z,51.74
2019-05-16T02:03:54.523Z,51.76
2019-05-16T02:04:54.510Z,53.51
2019-05-16T02:05:54.504Z,52.17
2019-05-16T02:06:55.002Z,52.48
2019-05-16T02:07:54.474Z,53.41
2019-05-16T02:08:54.467Z,52.20
2019-05-16T02:09:54.458Z,52.59
2019-05-16T02:10:54.444Z,52.28
2019-05-16T02:11:54.480Z,52.28
2019-05-16T02:12:54.425Z,52.17
2019-05-16T02:13:54.413Z,52.48
2019-05-16T02:14:54.406Z,52.17
2019-05-16T02:15:54.395Z,52.17
2019-05-16T02:16:54.407Z,52.28
2019-05-16T02:17:54.373Z,51.76
2019-05-16T02:18:54.360Z,51.56
2019-05-16T02:19:54.346Z,52.59
2019-05-16T02:20:54.344Z,52.17
2019-05-16T02:21:54.381Z,51.76
2019-05-16T02:22:54.320Z,51.66
2019-05-16T02:23:54.299Z,52.17
2019-05-16T02:24:54.297Z,51.76
2019-05-16T02:25:54.283Z,52.17
2019-05-16T02:26:54.275Z,51.97
2019-05-16T02:27:54.291Z,52.79
2019-05-16T02:28:54.254Z,52.28
2019-05-16T02:29:54.252Z,52.17
2019-05-16T02:30:54.229Z,53.51
2019-05-16T02:31:54.223Z,52.59
2019-05-16T02:32:54.238Z,53.00
2019-05-16T02:33:54.200Z,52.59
2019-05-16T02:34:54.192Z,53.72
2019-05-16T02:35:55.595Z,52.79
2019-05-16T02:37:14.594Z,52.79
2019-05-16T02:37:55.563Z,53.00
2019-05-16T02:38:55.477Z,53.10
2019-05-16T02:39:54.474Z,53.20
2019-05-16T02:40:55.242Z,53.30
2019-05-16T02:41:54.114Z,53.00
2019-05-16T02:42:56.180Z,52.79
2019-05-16T02:43:54.117Z,53.20
2019-05-16T02:44:54.091Z,52.79
2019-05-16T02:45:54.079Z,53.72
2019-05-16T02:46:54.062Z,54.15
2019-05-16T02:47:54.079Z,54.66
2019-05-16T02:48:54.039Z,54.77
2019-05-16T02:49:54.042Z,55.69
2019-05-16T02:50:54.015Z,55.08
2019-05-16T02:51:54.010Z,54.46
2019-05-16T02:52:54.048Z,54.36
2019-05-16T02:53:53.985Z,54.87
2019-05-16T02:54:53.976Z,54.25
2019-05-16T02:55:53.967Z,54.46
2019-05-16T02:56:53.974Z,54.56
2019-05-16T02:57:54.005Z,54.25
2019-05-16T02:58:53.945Z,54.56
2019-05-16T02:59:53.923Z,54.56
2019-05-16T03:00:53.921Z,54.36
2019-05-16T03:01:53.907Z,54.77
2019-05-16T03:02:53.935Z,54.56
2019-05-16T03:03:53.902Z,55.90
2019-05-16T03:04:53.870Z,54.77
2019-05-16T03:05:53.854Z,54.15
2019-05-16T03:06:53.851Z,54.36
2019-05-16T03:07:53.841Z,54.87
2019-05-16T03:08:53.859Z,54.97
2019-05-16T03:09:53.829Z,54.66
2019-05-16T03:10:53.807Z,54.66
2019-05-16T03:11:53.807Z,54.87
2019-05-16T03:12:53.793Z,55.08
2019-05-16T03:13:53.803Z,54.66
2019-05-16T03:14:54.659Z,54.56
2019-05-16T03:15:53.752Z,54.25
2019-05-16T03:16:53.739Z,54.77
2019-05-16T03:17:53.731Z,54.25
2019-05-16T03:18:53.749Z,55.08
2019-05-16T03:19:53.710Z,55.79
2019-05-16T03:20:53.700Z,55.30
2019-05-16T03:21:53.694Z,55.49
2019-05-16T03:22:53.675Z,55.18
2019-05-16T03:23:53.710Z,55.18
2019-05-16T03:24:53.656Z,55.08
2019-05-16T03:25:53.644Z,54.87
2019-05-16T03:26:53.634Z,54.79
2019-05-16T03:27:53.629Z,54.97
2019-05-16T03:28:53.621Z,54.90
2019-05-16T03:29:53.629Z,54.97
2019-05-16T03:30:54.868Z,54.25
2019-05-16T03:31:54.801Z,55.49
2019-05-16T03:32:54.992Z,55.49
2019-05-16T03:33:59.782Z,55.79
2019-05-16T03:34:55.369Z,55.90
2019-05-16T03:35:55.351Z,55.82
2019-05-16T03:36:54.586Z,55.62
2019-05-16T03:37:59.628Z,55.59
2019-05-16T03:38:54.509Z,55.49
2019-05-16T03:39:53.521Z,55.93
2019-05-16T03:40:53.483Z,56.31
2019-05-16T03:41:53.478Z,55.62
2019-05-16T03:42:53.491Z,55.69
2019-05-16T03:43:53.452Z,56.21
2019-05-16T03:44:53.470Z,56.21
2019-05-16T03:45:53.434Z,55.69
2019-05-16T03:46:53.424Z,56.13
2019-05-16T03:47:53.413Z,56.51
2019-05-16T03:48:53.406Z,56.64
2019-05-16T03:49:53.428Z,56.74
2019-05-16T03:50:53.381Z,56.82
2019-05-16T03:51:53.374Z,56.62
2019-05-16T03:52:53.361Z,56.44
2019-05-16T03:53:53.349Z,56.72
2019-05-16T03:54:53.341Z,56.54
2019-05-16T03:55:53.363Z,56.54
2019-05-16T03:56:53.319Z,56.93
2019-05-16T03:57:53.310Z,57.16
2019-05-16T03:58:53.293Z,56.64
2019-05-16T03:59:53.283Z,57.16
2019-05-16T04:00:54.855Z,56.85
2019-05-16T04:01:53.276Z,58.08
2019-05-16T04:02:53.260Z,57.57
2019-05-16T04:03:53.240Z,57.67
2019-05-16T04:04:53.227Z,56.95
2019-05-16T04:05:53.258Z,56.85
2019-05-16T04:06:53.207Z,57.67
2019-05-16T04:08:09.979Z,56.31
2019-05-16T04:08:54.183Z,57.54
2019-05-16T04:09:53.174Z,57.85
2019-05-16T04:10:53.216Z,56.93
2019-05-16T04:11:53.159Z,57.34
2019-05-16T04:12:53.142Z,57.64
2019-05-16T04:13:53.132Z,57.03
2019-05-16T04:14:53.120Z,57.64
2019-05-16T04:15:53.261Z,57.85
2019-05-16T04:16:53.105Z,57.75
2019-05-16T04:17:53.093Z,57.64
2019-05-16T04:18:53.085Z,57.54
2019-05-16T04:19:53.071Z,58.08
2019-05-16T04:20:53.151Z,58.18
2019-05-16T04:21:53.052Z,57.95
2019-05-16T04:22:53.028Z,58.06
2019-05-16T04:23:53.036Z,57.98
2019-05-16T04:24:53.023Z,58.39
2019-05-16T04:25:53.206Z,58.16
2019-05-16T04:26:52.995Z,58.57
2019-05-16T04:27:52.983Z,57.85
2019-05-16T04:28:52.975Z,58.06
2019-05-16T04:29:52.963Z,57.95
2019-05-16T04:30:52.977Z,58.06
2019-05-16T04:31:52.943Z,57.93
2019-05-16T04:32:52.930Z,57.31
2019-05-16T04:33:52.920Z,57.72
2019-05-16T04:34:52.914Z,57.72
2019-05-16T04:35:53.344Z,57.82
2019-05-16T04:36:52.886Z,57.51
2019-05-16T04:37:52.875Z,57.59
2019-05-16T04:38:52.864Z,58.62
2019-05-16T04:39:52.871Z,57.70
2019-05-16T04:40:52.877Z,57.70
2019-05-16T04:41:52.843Z,57.49
2019-05-16T04:42:52.830Z,57.49
2019-05-16T04:43:52.811Z,57.59
2019-05-16T04:44:52.801Z,57.39
2019-05-16T04:45:53.103Z,57.79
2019-05-16T04:46:52.789Z,57.70
2019-05-16T04:47:52.777Z,58.00
2019-05-16T04:48:52.769Z,58.21
2019-05-16T04:49:52.746Z,58.31
2019-05-16T04:50:52.963Z,58.75
2019-05-16T04:51:52.763Z,58.41
2019-05-16T04:52:52.716Z,59.06
2019-05-16T04:53:52.703Z,59.47
2019-05-16T04:54:52.708Z,59.26
2019-05-16T04:55:52.682Z,59.57
2019-05-16T04:56:52.704Z,59.88
2019-05-16T04:57:52.666Z,59.67
2019-05-16T04:58:52.653Z,59.67
2019-05-16T04:59:52.651Z,60.70
2019-05-16T05:00:52.739Z,60.29
2019-05-16T05:01:52.644Z,59.67
2019-05-16T05:02:52.613Z,59.67
2019-05-16T05:04:06.321Z,60.19
2019-05-16T05:04:53.589Z,59.06
2019-05-16T05:05:52.577Z,59.98
2019-05-16T05:06:55.660Z,60.08
2019-05-16T05:07:52.554Z,59.98
2019-05-16T05:08:58.621Z,60.39
2019-05-16T05:09:53.533Z,59.26
2019-05-16T05:10:52.527Z,59.67
2019-05-16T05:11:52.540Z,60.08
2019-05-16T05:12:52.497Z,59.88
2019-05-16T05:13:52.495Z,59.88
2019-05-16T05:14:52.485Z,59.67
2019-05-16T05:15:52.468Z,59.98
2019-05-16T05:16:52.489Z,60.19
2019-05-16T05:17:52.451Z,60.08
2019-05-16T05:18:52.435Z,59.26
2019-05-16T05:19:52.427Z,60.19
2019-05-16T05:20:52.971Z,60.19
2019-05-16T05:21:52.432Z,59.36
2019-05-16T05:22:52.394Z,59.16
2019-05-16T05:23:52.389Z,59.44
2019-05-16T05:24:52.370Z,59.95
2019-05-16T05:25:52.362Z,58.72
2019-05-16T05:26:52.380Z,59.23
2019-05-16T05:27:52.340Z,59.13
2019-05-16T05:28:52.346Z,59.34
2019-05-16T05:29:52.324Z,59.54
2019-05-16T05:30:52.311Z,58.83
2019-05-16T05:31:55.151Z,58.62
2019-05-16T05:32:52.296Z,59.03
2019-05-16T05:33:52.276Z,59.44
2019-05-16T05:34:52.276Z,59.44
2019-05-16T05:35:52.253Z,59.85
2019-05-16T05:36:52.270Z,60.26
2019-05-16T05:37:52.236Z,60.47
2019-05-16T05:39:07.525Z,60.47
2019-05-16T05:39:53.212Z,60.26
2019-05-16T05:40:52.206Z,60.36
2019-05-16T05:41:52.216Z,60.16
2019-05-16T05:42:52.178Z,60.57
2019-05-16T05:43:54.528Z,60.67
2019-05-16T05:44:52.160Z,60.98
2019-05-16T05:45:52.151Z,60.05
2019-05-16T05:46:52.185Z,60.57
2019-05-16T05:47:52.125Z,60.67
2019-05-16T05:48:52.117Z,60.26
2019-05-16T05:49:52.120Z,60.16
2019-05-16T05:50:52.091Z,60.03
2019-05-16T05:51:52.077Z,60.33
2019-05-16T05:52:52.098Z,59.82
2019-05-16T05:53:52.051Z,59.72
2019-05-16T05:54:52.058Z,59.41
2019-05-16T05:55:52.042Z,59.80
2019-05-16T05:56:52.030Z,59.38
2019-05-16T05:57:52.050Z,59.28
2019-05-16T05:58:52.006Z,59.69
2019-05-16T05:59:52.002Z,59.05
2019-05-16T06:00:52.526Z,58.95
2019-05-16T06:01:52.071Z,59.05
2019-05-16T06:02:52.018Z,58.61
2019-05-16T06:03:51.954Z,58.69
2019-05-16T06:04:51.948Z,57.87
2019-05-16T06:05:51.936Z,57.05
2019-05-16T06:06:51.924Z,57.56
2019-05-16T06:07:51.942Z,57.15
2019-05-16T06:08:51.909Z,57.87
2019-05-16T06:09:56.225Z,57.35
2019-05-16T06:10:51.891Z,57.74
2019-05-16T06:11:51.886Z,57.64
2019-05-16T06:12:51.888Z,56.82
2019-05-16T06:13:51.852Z,57.30
2019-05-16T06:14:51.848Z,56.18
2019-05-16T06:15:51.826Z,56.38
2019-05-16T06:16:51.818Z,56.10
2019-05-16T06:17:51.835Z,56.43
2019-05-16T06:18:51.797Z,57.25
2019-05-16T06:19:51.790Z,57.35
2019-05-16T06:20:51.788Z,57.74
2019-05-16T06:21:51.768Z,57.43
2019-05-16T06:22:51.827Z,57.51
2019-05-16T06:23:51.856Z,58.02
2019-05-16T06:24:51.748Z,58.04
2019-05-16T06:25:51.741Z,57.33
2019-05-16T06:26:51.823Z,57.43
2019-05-16T06:27:51.766Z,58.66
2019-05-16T06:28:51.699Z,57.92
2019-05-16T06:29:51.680Z,57.30
2019-05-16T06:30:52.168Z,57.51
2019-05-16T06:31:51.658Z,56.87
2019-05-16T06:32:51.665Z,57.51
2019-05-16T06:33:51.639Z,56.69
2019-05-16T06:34:51.627Z,56.35
2019-05-16T06:35:51.757Z,56.66
2019-05-16T06:36:51.605Z,55.77
2019-05-16T06:37:51.618Z,56.28
2019-05-16T06:38:51.581Z,56.69
2019-05-16T06:39:51.568Z,56.35
2019-05-16T06:40:52.539Z,56.46
2019-05-16T06:41:51.547Z,56.43
2019-05-16T06:42:51.563Z,55.41
2019-05-16T06:43:51.528Z,55.54
2019-05-16T06:44:51.516Z,56.56
2019-05-16T06:45:51.745Z,55.64
2019-05-16T06:47:08.675Z,55.62
2019-05-16T06:47:52.509Z,57.48
2019-05-16T06:48:51.472Z,56.35
2019-05-16T06:49:51.462Z,56.56
2019-05-16T06:50:52.017Z,56.38
2019-05-16T06:51:51.707Z,56.07
2019-05-16T06:52:51.472Z,57.51
2019-05-16T06:53:51.430Z,56.79
2019-05-16T06:54:53.809Z,57.30
2019-05-16T06:55:51.398Z,57.40
2019-05-16T06:56:51.386Z,56.79
2019-05-16T06:57:51.378Z,57.30
2019-05-16T06:58:52.122Z,56.48
2019-05-16T06:59:51.359Z,56.76
2019-05-16T07:00:52.599Z,57.30
2019-05-16T07:01:51.339Z,57.81
2019-05-16T07:02:51.328Z,57.30
2019-05-16T07:03:51.347Z,57.38
2019-05-16T07:04:51.303Z,58.33
2019-05-16T07:05:51.317Z,57.17
2019-05-16T07:06:58.559Z,57.79
2019-05-16T07:07:52.279Z,57.68
2019-05-16T07:08:51.297Z,56.94
2019-05-16T07:10:00.115Z,56.53
2019-05-16T07:10:52.244Z,56.51
2019-05-16T07:11:51.244Z,56.20
2019-05-16T07:12:51.216Z,56.30
2019-05-16T07:13:52.023Z,55.76
2019-05-16T07:14:51.256Z,55.54
2019-05-16T07:15:51.187Z,54.51
2019-05-16T07:16:51.178Z,55.36
2019-05-16T07:17:51.215Z,55.87
2019-05-16T07:18:51.182Z,55.69
2019-05-16T07:19:51.144Z,56.30
2019-05-16T07:20:51.513Z,56.30
2019-05-16T07:21:51.122Z,55.69
2019-05-16T07:22:51.116Z,56.84
2019-05-16T07:23:51.399Z,56.51
2019-05-16T07:24:51.091Z,56.61
2019-05-16T07:25:51.084Z,56.51
2019-05-16T07:26:51.097Z,56.40
2019-05-16T07:27:51.324Z,56.48
2019-05-16T07:28:51.729Z,55.43
2019-05-16T07:29:51.040Z,55.30
2019-05-16T07:30:51.030Z,55.02
2019-05-16T07:31:52.462Z,54.28
2019-05-16T07:32:51.001Z,53.98
2019-05-16T07:33:51.037Z,53.88
2019-05-16T07:34:51.001Z,54.59
2019-05-16T07:35:51.590Z,55.33
2019-05-16T07:36:51.002Z,55.43
2019-05-16T07:37:50.956Z,54.51
2019-05-16T07:38:50.946Z,54.41
2019-05-16T07:39:51.287Z,54.41
2019-05-16T07:40:51.481Z,54.72
2019-05-16T07:41:51.015Z,54.72
2019-05-16T07:42:51.169Z,54.21
2019-05-16T07:43:50.887Z,54.49
2019-05-16T07:44:50.905Z,53.96
2019-05-16T07:45:51.573Z,53.14
2019-05-16T07:46:51.719Z,53.62
2019-05-16T07:47:51.197Z,53.85
2019-05-16T07:48:51.934Z,52.98
2019-05-16T07:49:50.851Z,53.70
2019-05-16T07:50:50.817Z,53.16
2019-05-16T07:51:50.806Z,52.22
2019-05-16T07:52:51.287Z,52.10
2019-05-16T07:53:50.783Z,51.89
2019-05-16T07:54:50.961Z,51.06
2019-05-16T07:55:51.217Z,51.36
2019-05-16T07:56:59.255Z,51.87
2019-05-16T07:57:51.738Z,51.61
2019-05-16T07:58:50.956Z,53.78
2019-05-16T07:59:50.849Z,53.78
2019-05-16T08:01:02.001Z,52.45
2019-05-16T08:01:54.155Z,53.37
2019-05-16T08:02:50.756Z,52.76
2019-05-16T08:03:51.153Z,52.88
2019-05-16T08:04:50.708Z,51.92
2019-05-16T08:05:51.610Z,51.76
2019-05-16T08:06:50.643Z,52.15
2019-05-16T08:07:51.401Z,52.73
2019-05-16T08:08:51.259Z,52.96
2019-05-16T08:09:50.747Z,53.16
2019-05-16T08:10:51.251Z,54.08
2019-05-16T08:11:50.593Z,52.55
2019-05-16T08:12:51.450Z,52.48
2019-05-16T08:13:50.862Z,53.19
2019-05-16T08:14:50.581Z,52.86
2019-05-16T08:15:51.034Z,52.63
2019-05-16T08:16:50.541Z,52.86
2019-05-16T08:17:51.204Z,52.83
2019-05-16T08:18:50.871Z,52.45
2019-05-16T08:19:50.975Z,53.62
2019-05-16T08:20:52.485Z,54.00
2019-05-16T08:21:50.776Z,53.70
2019-05-16T08:22:50.895Z,54.54
2019-05-16T08:23:50.694Z,53.96
2019-05-16T08:24:50.663Z,53.85
2019-05-16T08:25:50.843Z,55.23
2019-05-16T08:27:52.188Z,55.26
2019-05-16T08:28:50.725Z,55.35
2019-05-16T08:29:51.406Z,54.72
2019-05-16T08:31:52.846Z,54.61
2019-05-16T08:32:52.867Z,54.26
2019-05-16T08:33:53.707Z,55.38
2019-05-16T08:34:51.518Z,55.38
2019-05-16T08:35:51.608Z,55.87
2019-05-16T08:37:51.672Z,54.61
2019-05-16T08:38:51.586Z,54.51
2019-05-16T08:39:50.935Z,53.83
2019-05-16T08:41:05.988Z,55.58
2019-05-16T08:42:52.044Z,53.83
2019-05-16T08:43:53.374Z,54.33
2019-05-16T08:44:51.615Z,55.35
2019-05-16T08:45:51.508Z,55.18
2019-05-16T08:46:57.109Z,55.35
2019-05-16T08:47:52.485Z,55.02
2019-05-16T08:48:53.836Z,55.41
2019-05-16T08:49:52.186Z,53.78
2019-05-16T08:50:05.379Z,55.46
2019-05-16T08:50:09.653Z,55.35
2019-05-16T08:50:54.455Z,53.90
2019-05-16T08:51:52.915Z,54.74
2019-05-16T08:52:52.880Z,55.13
2019-05-16T08:53:50.584Z,55.33
2019-05-16T08:54:51.123Z,54.64
2019-05-16T08:55:50.700Z,55.22
2019-05-16T08:57:52.944Z,55.58
2019-05-16T08:58:53.806Z,56.30
2019-05-16T08:59:52.341Z,55.26
2019-05-16T09:01:57.541Z,54.00
2019-05-16T09:02:52.398Z,54.00
2019-05-16T09:03:52.113Z,54.92
2019-05-16T09:04:53.480Z,54.61
2019-05-16T09:05:53.244Z,53.80
2019-05-16T09:06:52.630Z,55.15
2019-05-16T09:07:50.002Z,54.82
2019-05-16T09:08:49.997Z,54.21
2019-05-16T09:10:10.718Z,54.31
2019-05-16T09:10:34.907Z,55.58
2019-05-16T09:10:34.908Z,55.84
2019-05-16T09:10:35.081Z,55.53
2019-05-16T09:11:00.823Z,55.35
2019-05-16T09:11:50.967Z,56.48
2019-05-16T09:12:49.951Z,57.29
2019-05-16T09:13:49.950Z,55.97
2019-05-16T09:14:49.934Z,56.17
2019-05-16T09:15:49.978Z,56.68
2019-05-16T09:16:49.919Z,56.17
2019-05-16T09:17:49.898Z,56.17
2019-05-16T09:18:38.343Z,54.85
2019-05-16T09:18:50.967Z,55.56
2019-05-16T09:19:49.882Z,56.15
2019-05-16T09:20:50.595Z,55.13
2019-05-16T09:21:49.887Z,55.13
2019-05-16T09:22:49.848Z,54.08
2019-05-16T09:23:49.841Z,53.98
2019-05-16T09:24:49.825Z,54.90
2019-05-16T09:25:49.878Z,54.69
2019-05-16T09:26:49.827Z,53.88
2019-05-16T09:27:49.791Z,55.51
2019-05-16T09:28:49.785Z,55.41
2019-05-16T09:29:49.771Z,54.08
2019-05-16T09:30:49.766Z,54.87
2019-05-16T09:32:07.878Z,55.05
2019-05-16T09:32:50.753Z,55.71
2019-05-16T09:33:49.736Z,55.28
2019-05-16T09:34:49.753Z,55.41
2019-05-16T09:35:49.726Z,55.71
2019-05-16T09:36:49.732Z,55.41
2019-05-16T09:37:49.704Z,55.94
2019-05-16T09:38:49.680Z,57.32
2019-05-16T09:39:49.670Z,57.62
2019-05-16T09:40:49.659Z,57.93
2019-05-16T09:41:54.425Z,58.67
2019-05-16T09:42:50.638Z,58.37
2019-05-16T09:43:49.629Z,58.54
2019-05-16T09:44:49.618Z,57.19
2019-05-16T09:45:49.606Z,56.88
2019-05-16T09:46:49.621Z,57.62
2019-05-16T09:47:49.583Z,57.09
2019-05-16T09:48:49.572Z,57.12
2019-05-16T09:49:49.563Z,57.32
2019-05-16T09:50:49.557Z,56.88
2019-05-16T09:51:49.573Z,57.01
2019-05-16T09:52:49.530Z,57.32
2019-05-16T09:53:49.519Z,57.29
2019-05-16T09:54:49.509Z,56.68
2019-05-16T09:55:49.502Z,56.04
2019-05-16T09:56:49.518Z,55.43
2019-05-16T09:57:49.489Z,55.18
2019-05-16T09:58:49.467Z,53.80
2019-05-16T09:59:49.445Z,53.29
2019-05-16T10:00:49.451Z,53.09
2019-05-16T10:01:49.465Z,54.97
2019-05-16T10:02:49.427Z,55.30
2019-05-16T10:03:49.415Z,54.54
2019-05-16T10:04:49.404Z,54.21
2019-05-16T10:05:49.397Z,54.31
2019-05-16T10:06:49.425Z,53.72
2019-05-16T10:07:49.382Z,53.96
2019-05-16T10:08:49.364Z,55.18
2019-05-16T10:09:50.288Z,56.15
2019-05-16T10:10:49.341Z,56.22
2019-05-16T10:12:05.264Z,55.38
2019-05-16T10:12:50.319Z,56.22
2019-05-16T10:13:49.361Z,55.63
2019-05-16T10:14:49.311Z,56.22
2019-05-16T10:15:49.284Z,56.99
2019-05-16T10:16:49.278Z,57.39
2019-05-16T10:17:49.298Z,58.59
2019-05-16T10:18:49.256Z,57.26
2019-05-16T10:19:49.240Z,58.11
2019-05-16T10:20:49.237Z,58.01
2019-05-16T10:21:49.219Z,58.54
2019-05-16T10:22:50.581Z,59.26
2019-05-16T10:23:49.199Z,60.17
2019-05-16T10:24:49.199Z,63.20
2019-05-16T10:25:49.180Z,61.68
2019-05-16T10:26:53.768Z,62.39
2019-05-16T10:27:49.194Z,62.90
2019-05-16T10:28:49.147Z,64.56
2019-05-16T10:29:49.154Z,66.91
2019-05-16T10:30:50.110Z,65.48
2019-05-16T10:31:53.150Z,65.99
2019-05-16T10:32:49.132Z,65.71
2019-05-16T10:33:49.101Z,66.94
2019-05-16T10:34:49.086Z,66.66
2019-05-16T10:35:49.081Z,67.92
2019-05-16T10:36:49.069Z,67.00
2019-05-16T10:37:49.085Z,67.41
2019-05-16T10:38:49.044Z,70.17
2019-05-16T10:39:49.037Z,70.51
2019-05-16T10:40:49.028Z,70.37
2019-05-16T10:41:49.011Z,67.92
2019-05-16T10:42:49.026Z,70.23
2019-05-16T10:43:48.986Z,71.19
2019-05-16T10:44:48.986Z,68.97
2019-05-16T10:45:48.971Z,71.12
2019-05-16T10:46:49.007Z,73.71
2019-05-16T10:47:48.974Z,74.35
2019-05-16T10:48:48.947Z,73.64
2019-05-16T10:49:48.931Z,75.04
2019-05-16T10:50:48.943Z,70.72
2019-05-16T10:51:48.997Z,69.49
2019-05-16T10:53:07.041Z,69.29
2019-05-16T10:54:05.701Z,70.85
2019-05-16T10:54:57.995Z,70.61
2019-05-16T10:55:49.861Z,69.01
2019-05-16T10:56:48.889Z,70.75
2019-05-16T10:57:48.988Z,72.79
2019-05-16T10:59:14.658Z,69.42
2019-05-16T11:00:06.576Z,70.34
2019-05-16T11:01:10.951Z,71.84
2019-05-16T11:01:49.798Z,70.40
2019-05-16T11:02:48.904Z,69.25
2019-05-16T11:03:49.343Z,68.20
2019-05-16T11:05:00.149Z,68.74
2019-05-16T11:06:02.953Z,68.84
2019-05-16T11:06:49.759Z,69.32
2019-05-16T11:07:52.937Z,69.90
2019-05-16T11:08:48.724Z,67.93
2019-05-16T11:09:58.531Z,65.77
2019-05-16T11:10:49.737Z,66.91
2019-05-16T11:11:48.692Z,67.80
2019-05-16T11:12:54.913Z,67.32
2019-05-16T11:13:51.216Z,67.86
2019-05-16T11:14:48.663Z,68.20
2019-05-16T11:15:48.663Z,70.61
2019-05-16T11:16:48.656Z,71.36
2019-05-16T11:17:48.632Z,71.29
2019-05-16T11:18:48.647Z,73.57
2019-05-16T11:19:48.614Z,76.12
2019-05-16T11:20:49.361Z,73.50
2019-05-16T11:21:48.584Z,78.52
2019-05-16T11:22:48.582Z,80.15
2019-05-16T11:23:48.590Z,79.29
2019-05-16T11:24:48.558Z,76.23
2019-05-16T11:25:48.543Z,76.43
2019-05-16T11:26:48.556Z,74.18
2019-05-16T11:27:48.519Z,74.87
2019-05-16T11:28:49.328Z,76.40
2019-05-16T11:29:48.498Z,78.57
2019-05-16T11:30:49.903Z,74.69
2019-05-16T11:31:48.475Z,74.59
2019-05-16T11:32:48.471Z,75.16
2019-05-16T11:33:48.484Z,74.05
2019-05-16T11:34:48.446Z,74.35
2019-05-16T11:35:48.434Z,72.21
2019-05-16T11:36:48.427Z,74.66
2019-05-16T11:37:48.413Z,75.07
2019-05-16T11:38:48.426Z,74.52
2019-05-16T11:39:48.399Z,73.91
2019-05-16T11:40:48.387Z,73.54
2019-05-16T11:41:48.370Z,73.06
2019-05-16T11:43:05.113Z,73.88
2019-05-16T11:43:49.377Z,75.61
2019-05-16T11:44:48.338Z,74.90
2019-05-16T11:45:48.331Z,74.29
2019-05-16T11:46:49.151Z,71.26
2019-05-16T11:47:48.307Z,73.19
2019-05-16T11:48:49.160Z,74.83
2019-05-16T11:49:48.287Z,74.22
2019-05-16T11:50:48.314Z,75.54
2019-05-16T11:51:48.309Z,74.22
2019-05-16T11:52:48.255Z,74.29
2019-05-16T11:53:48.276Z,73.27
2019-05-16T11:54:48.252Z,71.63
2019-05-16T11:55:55.598Z,72.28
2019-05-16T11:56:49.337Z,71.09
2019-05-16T11:57:48.203Z,71.09
2019-05-16T11:58:48.219Z,71.70
2019-05-16T11:59:48.179Z,74.93
2019-05-16T12:00:48.645Z,73.43
2019-05-16T12:01:48.149Z,73.91
2019-05-16T12:02:48.148Z,69.09
2019-05-16T12:03:48.187Z,67.79
2019-05-16T12:04:48.132Z,71.15
2019-05-16T12:05:48.629Z,71.53
2019-05-16T12:06:48.102Z,70.44
2019-05-16T12:07:48.819Z,71.15
2019-05-16T12:08:48.083Z,68.91
2019-05-16T12:09:55.081Z,73.13
2019-05-16T12:10:49.067Z,73.30
2019-05-16T12:11:48.052Z,72.17
2019-05-16T12:12:48.041Z,70.82
2019-05-16T12:13:48.030Z,73.43
2019-05-16T12:14:48.056Z,66.61
2019-05-16T12:15:48.012Z,67.73
2019-05-16T12:16:48.001Z,68.62
2019-05-16T12:18:00.308Z,66.61
2019-05-16T12:18:48.978Z,69.26
2019-05-16T12:19:52.222Z,67.25
2019-05-16T12:20:47.957Z,66.27
2019-05-16T12:21:47.992Z,67.01
2019-05-16T12:22:47.937Z,68.54
2019-05-16T12:23:47.948Z,66.39
2019-05-16T12:24:47.957Z,67.82
2019-05-16T12:25:47.903Z,68.33
2019-05-16T12:26:48.136Z,70.31
2019-05-16T12:27:48.215Z,67.85
2019-05-16T12:28:47.875Z,67.24
2019-05-16T12:29:54.772Z,68.37
2019-05-16T12:30:48.851Z,69.25
2019-05-16T12:31:57.785Z,67.21
2019-05-16T12:32:48.835Z,66.67
2019-05-16T12:33:48.103Z,65.65
2019-05-16T12:34:47.830Z,64.43
2019-05-16T12:35:47.805Z,67.99
2019-05-16T12:36:47.788Z,65.45
2019-05-16T12:37:48.202Z,66.47
2019-05-16T12:38:47.778Z,65.78
2019-05-16T12:39:47.795Z,66.30
2019-05-16T12:40:48.161Z,65.75
2019-05-16T12:41:49.150Z,66.44
2019-05-16T12:42:47.723Z,66.27
2019-05-16T12:43:52.643Z,65.75
2019-05-16T12:44:48.772Z,66.57
2019-05-16T12:45:47.692Z,66.74
2019-05-16T12:46:47.686Z,66.41
2019-05-16T12:47:47.666Z,66.85
2019-05-16T12:48:47.658Z,64.53
2019-05-16T12:49:47.675Z,66.97
2019-05-16T12:50:48.224Z,65.25
2019-05-16T12:51:47.626Z,66.88
2019-05-16T12:52:47.672Z,68.71